Big Bear Station Historical Data
Daily Summary for March 8, 2019 Units:  English    Metric   Both
Next Day »
Daily Weekly Monthly Yearly Custom
  High: Low: Average:
Temperature: 35.2 °F 20.7 °F 26.9 °F
Dew Point: 28.1 °F 19.2 °F 24.3 °F
Humidity: 95% 75% 90%
Wind Speed: 7.8mph 0.0mph 1.6mph
Wind Gust: -999.0mph - -
Wind- - SW
Pressure: 23.34 in 23.26 in -
Precipitation: 0.00 in    
Historical Graphs
 
 
Tabular Data for March 8, 2019
Time Temperature Dew Point Pressure Wind Wind Speed Wind Gust Humidity Rainfall Rate (Hourly)
00:14 26.6 °F 25.1 °F 23.28 in WSW 2.7 mph -999.0 mph 94% 0.00 in
00:29 26.4 °F 24.9 °F 23.29 in SW 2.2 mph -999.0 mph 94% 0.00 in
00:45 26.1 °F 24.9 °F 23.29 in SSW 3.7 mph -999.0 mph 95% 0.00 in
01:00 25.7 °F 24.2 °F 23.28 in Calm   -999.0 mph 94% 0.00 in
01:15 25.7 °F 24.2 °F 23.28 in Calm   -999.0 mph 94% 0.00 in
01:30 25.7 °F 24.2 °F 23.28 in Calm   -999.0 mph 94% 0.00 in
01:45 25.7 °F 24.2 °F 23.28 in Calm   -999.0 mph 94% 0.00 in
02:01 25.5 °F 24.0 °F 23.28 in Calm   -999.0 mph 94% 0.00 in
02:16 25.5 °F 24.0 °F 23.27 in Calm   -999.0 mph 94% 0.00 in
02:31 25.7 °F 24.5 °F 23.27 in Calm   -999.0 mph 95% 0.00 in
02:46 25.7 °F 24.5 °F 23.27 in Calm   -999.0 mph 95% 0.00 in
03:01 25.5 °F 24.3 °F 23.27 in Calm   -999.0 mph 95% 0.00 in
03:17 25.5 °F 24.0 °F 23.26 in Calm   -999.0 mph 94% 0.00 in
03:32 25.7 °F 24.2 °F 23.27 in SSE 1.1 mph -999.0 mph 94% 0.00 in
03:47 25.5 °F 24.0 °F 23.26 in Calm   -999.0 mph 94% 0.00 in
04:02 25.3 °F 23.8 °F 23.26 in South 3.2 mph -999.0 mph 94% 0.00 in
04:18 25.2 °F 23.7 °F 23.26 in WSW 1.1 mph -999.0 mph 94% 0.00 in
04:33 24.6 °F 22.9 °F 23.26 in Calm   -999.0 mph 93% 0.00 in
04:48 24.3 °F 22.3 °F 23.27 in NNW 2.7 mph -999.0 mph 92% 0.00 in
05:03 24.1 °F 21.9 °F 23.28 in ESE 1.7 mph -999.0 mph 91% 0.00 in
05:19 23.9 °F 21.9 °F 23.28 in Calm   -999.0 mph 92% 0.00 in
05:34 23.9 °F 22.2 °F 23.28 in NW 2.2 mph -999.0 mph 93% 0.00 in
05:49 23.9 °F 22.4 °F 23.28 in WNW 4.2 mph -999.0 mph 94% 0.00 in
06:04 23.9 °F 22.4 °F 23.28 in Calm   -999.0 mph 94% 0.00 in
06:19 23.9 °F 22.7 °F 23.28 in WSW 1.7 mph -999.0 mph 95% 0.00 in
06:35 24.1 °F 22.6 °F 23.28 in SE 1.7 mph -999.0 mph 94% 0.00 in
06:50 24.6 °F 23.1 °F 23.28 in Calm   -999.0 mph 94% 0.00 in
07:05 25.0 °F 22.5 °F 23.28 in WNW 3.2 mph -999.0 mph 90% 0.00 in
07:20 25.7 °F 23.2 °F 23.28 in Calm   -999.0 mph 90% 0.00 in
07:36 25.9 °F 23.4 °F 23.28 in West 2.2 mph -999.0 mph 90% 0.00 in
07:51 25.7 °F 22.9 °F 23.28 in West 1.1 mph -999.0 mph 89% 0.00 in
08:07 26.6 °F 23.3 °F 23.29 in WNW 2.2 mph -999.0 mph 87% 0.00 in
08:22 27.1 °F 24.0 °F 23.30 in ESE 1.7 mph -999.0 mph 88% 0.00 in
08:37 28.0 °F 24.4 °F 23.30 in SSW 2.2 mph -999.0 mph 86% 0.00 in
08:53 29.3 °F 25.4 °F 23.30 in NW 1.7 mph -999.0 mph 85% 0.00 in
09:08 29.1 °F 25.4 °F 23.30 in WSW 6.3 mph -999.0 mph 86% 0.00 in
09:24 29.7 °F 25.5 °F 23.30 in South 3.2 mph -999.0 mph 84% 0.00 in
09:39 30.6 °F 26.6 °F 23.29 in Calm   -999.0 mph 85% 0.00 in
09:54 31.1 °F 26.5 °F 23.30 in NW 5.8 mph -999.0 mph 83% 0.00 in
10:09 29.5 °F 25.5 °F 23.30 in East 5.8 mph -999.0 mph 85% 0.00 in
10:25 29.8 °F 25.6 °F 23.30 in NNW 7.8 mph -999.0 mph 84% 0.00 in
10:40 30.2 °F 26.5 °F 23.30 in West 3.7 mph -999.0 mph 86% 0.00 in
10:55 29.3 °F 26.2 °F 23.30 in Calm   -999.0 mph 88% 0.00 in
11:11 29.8 °F 25.6 °F 23.31 in NE 2.2 mph -999.0 mph 84% 0.00 in
11:26 32.4 °F 27.8 °F 23.31 in NNE 2.2 mph -999.0 mph 83% 0.00 in
11:42 32.9 °F 27.1 °F 23.31 in NW 2.2 mph -999.0 mph 79% 0.00 in
11:57 35.2 °F 28.1 °F 23.31 in NW 2.7 mph -999.0 mph 75% 0.00 in
12:13 32.4 °F 27.2 °F 23.31 in South 4.2 mph -999.0 mph 81% 0.00 in
12:28 30.9 °F 25.2 °F 23.30 in East 2.7 mph -999.0 mph 79% 0.00 in
12:44 33.6 °F 27.2 °F 23.30 in NNE 4.7 mph -999.0 mph 77% 0.00 in
13:00 33.8 °F 27.0 °F 23.30 in West 3.7 mph -999.0 mph 76% 0.00 in
13:15 33.6 °F 27.5 °F 23.30 in NW 1.1 mph -999.0 mph 78% 0.00 in
13:31 32.7 °F 27.5 °F 23.30 in Calm   -999.0 mph 81% 0.00 in
13:46 31.1 °F 26.8 °F 23.30 in NNW 2.7 mph -999.0 mph 84% 0.00 in
14:01 32.4 °F 26.9 °F 23.30 in South 4.2 mph -999.0 mph 80% 0.00 in
14:16 32.2 °F 27.6 °F 23.30 in WNW 2.2 mph -999.0 mph 83% 0.00 in
14:31 31.3 °F 27.3 °F 23.30 in West 2.2 mph -999.0 mph 85% 0.00 in
14:47 31.8 °F 27.2 °F 23.30 in SSE 2.7 mph -999.0 mph 83% 0.00 in
15:02 31.8 °F 27.5 °F 23.30 in WNW 3.2 mph -999.0 mph 84% 0.00 in
15:17 30.7 °F 26.4 °F 23.30 in South 4.2 mph -999.0 mph 84% 0.00 in
15:32 30.0 °F 26.6 °F 23.31 in SSE 3.2 mph -999.0 mph 87% 0.00 in
15:47 29.7 °F 26.6 °F 23.30 in SW 2.2 mph -999.0 mph 88% 0.00 in
16:03 28.0 °F 25.4 °F 23.30 in WNW 4.2 mph -999.0 mph 90% 0.00 in
16:18 28.2 °F 25.4 °F 23.31 in Calm   -999.0 mph 89% 0.00 in
16:33 27.5 °F 25.0 °F 23.31 in West 2.7 mph -999.0 mph 90% 0.00 in
16:48 27.1 °F 25.3 °F 23.30 in WSW 4.2 mph -999.0 mph 93% 0.00 in
17:03 26.8 °F 25.3 °F 23.30 in SSW 3.7 mph -999.0 mph 94% 0.00 in
17:19 26.6 °F 24.9 °F 23.30 in Calm   -999.0 mph 93% 0.00 in
17:34 26.4 °F 24.9 °F 23.30 in Calm   -999.0 mph 94% 0.00 in
17:49 26.1 °F 24.4 °F 23.30 in SSW 1.7 mph -999.0 mph 93% 0.00 in
18:05 25.9 °F 24.4 °F 23.30 in NW 1.7 mph -999.0 mph 94% 0.00 in
18:20 25.9 °F 24.4 °F 23.31 in SSE 1.7 mph -999.0 mph 94% 0.00 in
18:35 25.9 °F 24.2 °F 23.30 in Calm   -999.0 mph 93% 0.00 in
18:50 25.7 °F 24.2 °F 23.30 in Calm   -999.0 mph 94% 0.00 in
19:06 25.7 °F 24.2 °F 23.32 in Calm   -999.0 mph 94% 0.00 in
19:21 25.5 °F 24.0 °F 23.32 in WNW 2.2 mph -999.0 mph 94% 0.00 in
19:36 25.7 °F 24.2 °F 23.32 in North 2.7 mph -999.0 mph 94% 0.00 in
19:52 25.7 °F 24.2 °F 23.32 in Calm   -999.0 mph 94% 0.00 in
20:07 25.7 °F 24.2 °F 23.33 in Calm   -999.0 mph 94% 0.00 in
20:22 25.7 °F 24.2 °F 23.32 in Calm   -999.0 mph 94% 0.00 in
20:37 25.5 °F 23.8 °F 23.32 in Calm   -999.0 mph 93% 0.00 in
20:53 25.2 °F 23.2 °F 23.32 in Calm   -999.0 mph 92% 0.00 in
21:08 24.8 °F 22.5 °F 23.32 in Calm   -999.0 mph 91% 0.00 in
21:23 24.3 °F 22.3 °F 23.32 in Calm   -999.0 mph 92% 0.00 in
21:38 23.9 °F 22.2 °F 23.32 in Calm   -999.0 mph 93% 0.00 in
21:53 23.4 °F 21.7 °F 23.34 in Calm   -999.0 mph 93% 0.00 in
22:09 22.8 °F 20.8 °F 23.33 in Calm   -999.0 mph 92% 0.00 in
22:24 22.1 °F 20.1 °F 23.32 in Calm   -999.0 mph 92% 0.00 in
22:39 21.7 °F 20.0 °F 23.32 in Calm   -999.0 mph 93% 0.00 in
22:55 21.4 °F 19.9 °F 23.32 in Calm   -999.0 mph 94% 0.00 in
23:10 20.8 °F 19.3 °F 23.32 in Calm   -999.0 mph 94% 0.00 in
23:26 20.7 °F 19.2 °F 23.33 in South 2.2 mph -999.0 mph 94% 0.00 in
23:41 21.6 °F 20.1 °F 23.33 in Calm   -999.0 mph 94% 0.00 in
23:56 21.7 °F 20.0 °F 23.33 in Calm   -999.0 mph 93% 0.00 in
Big Bear CA Weather